createdAt,value
2016-07-30T00:00:57.244Z,966.76
2016-07-30T00:01:57.244Z,966.79
2016-07-30T00:02:57.244Z,966.75
2016-07-30T00:03:57.245Z,966.78
2016-07-30T00:04:57.248Z,966.79
2016-07-30T00:05:57.248Z,966.75
2016-07-30T00:07:57.253Z,966.75
2016-07-30T00:08:57.252Z,966.77
2016-07-30T00:09:57.252Z,966.77
2016-07-30T00:10:57.257Z,966.75
2016-07-30T00:11:57.257Z,966.75
2016-07-30T00:12:57.256Z,966.73
2016-07-30T00:13:57.273Z,966.73
2016-07-30T00:14:57.261Z,966.74
2016-07-30T00:15:57.260Z,966.74
2016-07-30T00:16:57.265Z,966.74
2016-07-30T00:17:57.266Z,966.71
2016-07-30T00:18:57.266Z,966.76
2016-07-30T00:20:57.269Z,966.72
2016-07-30T00:21:57.269Z,966.75
2016-07-30T00:22:57.269Z,966.77
2016-07-30T00:23:57.274Z,966.73
2016-07-30T00:24:57.274Z,966.81
2016-07-30T00:25:57.274Z,966.83
2016-07-30T00:26:57.278Z,966.82
2016-07-30T00:27:57.277Z,966.82
2016-07-30T00:28:57.278Z,966.83
2016-07-30T00:29:57.282Z,966.84
2016-07-30T00:30:57.282Z,966.83
2016-07-30T00:31:57.281Z,966.84
2016-07-30T00:32:57.282Z,966.82
2016-07-30T00:33:57.286Z,966.78
2016-07-30T00:34:57.286Z,966.81
2016-07-30T00:35:57.285Z,966.78
2016-07-30T00:36:57.290Z,966.8
2016-07-30T00:37:57.290Z,966.8
2016-07-30T00:38:57.290Z,966.82
2016-07-30T00:39:57.293Z,966.81
2016-07-30T00:40:57.294Z,966.85
2016-07-30T00:41:57.294Z,966.84
2016-07-30T00:42:57.293Z,966.85
2016-07-30T00:43:57.308Z,966.84
2016-07-30T00:44:57.297Z,966.86
2016-07-30T00:45:57.298Z,966.84
2016-07-30T00:46:57.350Z,966.84
2016-07-30T00:47:57.302Z,966.83
2016-07-30T00:48:57.302Z,966.87
2016-07-30T00:49:57.305Z,966.86
2016-07-30T00:50:57.306Z,966.87
2016-07-30T00:51:57.306Z,966.91
2016-07-30T00:52:57.310Z,966.92
2016-07-30T00:53:57.310Z,966.91
2016-07-30T00:54:57.310Z,966.91
2016-07-30T00:55:57.310Z,966.88
2016-07-30T00:56:57.314Z,966.91
2016-07-30T00:57:57.314Z,966.88
2016-07-30T00:58:57.313Z,966.88
2016-07-30T00:59:57.318Z,966.9
2016-07-30T01:00:57.319Z,966.88
2016-07-30T01:01:57.318Z,966.86
2016-07-30T01:02:57.319Z,966.88
2016-07-30T01:03:57.322Z,966.91
2016-07-30T01:04:57.322Z,966.87
2016-07-30T01:05:57.323Z,966.91
2016-07-30T01:06:57.327Z,966.87
2016-07-30T01:07:57.327Z,966.86
2016-07-30T01:08:57.326Z,966.85
2016-07-30T01:09:57.326Z,966.87
2016-07-30T01:10:57.331Z,966.89
2016-07-30T01:11:57.330Z,966.87
2016-07-30T01:12:57.330Z,966.85
2016-07-30T01:13:57.331Z,966.85
2016-07-30T01:14:57.334Z,966.88
2016-07-30T01:15:57.335Z,966.84
2016-07-30T01:16:57.336Z,966.82
2016-07-30T01:17:57.339Z,966.85
2016-07-30T01:18:57.339Z,966.83
2016-07-30T01:19:57.340Z,966.84
2016-07-30T01:20:57.338Z,966.84
2016-07-30T01:21:57.343Z,966.86
2016-07-30T01:22:57.343Z,966.86
2016-07-30T01:23:57.343Z,966.88
2016-07-30T01:24:57.348Z,966.86
2016-07-30T01:25:57.347Z,966.87
2016-07-30T01:26:57.347Z,966.86
2016-07-30T01:27:57.352Z,966.82
2016-07-30T01:28:57.352Z,966.79
2016-07-30T01:29:57.351Z,966.81
2016-07-30T01:30:57.352Z,966.8
2016-07-30T01:31:57.356Z,966.79
2016-07-30T01:32:57.355Z,966.8
2016-07-30T01:33:57.355Z,966.79
2016-07-30T01:34:57.356Z,966.79
2016-07-30T01:35:57.359Z,966.82
2016-07-30T01:36:57.359Z,966.79
2016-07-30T01:37:57.360Z,966.79
2016-07-30T01:38:57.363Z,966.78
2016-07-30T01:39:57.364Z,966.77
2016-07-30T01:40:57.363Z,966.78
2016-07-30T01:41:57.364Z,966.8
2016-07-30T01:42:57.367Z,966.77
2016-07-30T01:43:57.368Z,966.79
2016-07-30T01:44:57.367Z,966.75
2016-07-30T01:45:57.369Z,966.77
2016-07-30T01:46:57.373Z,966.75
2016-07-30T01:47:57.371Z,966.78
2016-07-30T01:48:57.372Z,966.76
2016-07-30T01:49:57.371Z,966.8
2016-07-30T01:50:57.376Z,966.74
2016-07-30T01:51:57.376Z,966.74
2016-07-30T01:52:57.376Z,966.73
2016-07-30T01:53:57.379Z,966.74
2016-07-30T01:54:57.380Z,966.75
2016-07-30T01:55:57.380Z,966.73
2016-07-30T01:56:57.379Z,966.72
2016-07-30T01:57:57.384Z,966.76
2016-07-30T01:58:57.384Z,966.74
2016-07-30T01:59:57.383Z,966.7
2016-07-30T02:00:57.384Z,966.69
2016-07-30T02:01:57.387Z,966.7
2016-07-30T02:02:57.387Z,966.66
2016-07-30T02:03:57.388Z,966.69
2016-07-30T02:04:57.388Z,966.68
2016-07-30T02:05:57.391Z,966.69
2016-07-30T02:06:57.393Z,966.72
2016-07-30T02:07:57.392Z,966.73
2016-07-30T02:08:57.392Z,966.7
2016-07-30T02:09:57.396Z,966.7
2016-07-30T02:10:57.400Z,966.67
2016-07-30T02:11:57.396Z,966.69
2016-07-30T02:12:57.395Z,966.7
2016-07-30T02:13:57.401Z,966.72
2016-07-30T02:14:57.400Z,966.7
2016-07-30T02:15:57.400Z,966.66
2016-07-30T02:16:57.401Z,966.69
2016-07-30T02:17:57.404Z,966.73
2016-07-30T02:18:57.404Z,966.73
2016-07-30T02:19:57.405Z,966.72
2016-07-30T02:20:57.409Z,966.7
2016-07-30T02:21:57.408Z,966.71
2016-07-30T02:22:57.409Z,966.74
2016-07-30T02:23:57.409Z,966.75
2016-07-30T02:24:57.413Z,966.74
2016-07-30T02:25:57.413Z,966.72
2016-07-30T02:26:57.413Z,966.71
2016-07-30T02:27:57.412Z,966.7
2016-07-30T02:28:57.413Z,966.7
2016-07-30T02:29:57.417Z,966.73
2016-07-30T02:30:57.417Z,966.76
2016-07-30T02:31:57.417Z,966.75
2016-07-30T02:32:57.417Z,966.77
2016-07-30T02:33:57.422Z,966.76
2016-07-30T02:34:57.421Z,966.76
2016-07-30T02:35:57.421Z,966.74
2016-07-30T02:36:57.421Z,966.75
2016-07-30T02:37:57.425Z,966.71
2016-07-30T02:38:57.426Z,966.72
2016-07-30T02:39:57.425Z,966.71
2016-07-30T02:40:57.425Z,966.69
2016-07-30T02:41:57.429Z,966.71
2016-07-30T02:42:57.429Z,966.69
2016-07-30T02:43:57.430Z,966.68
2016-07-30T02:44:57.430Z,966.73
2016-07-30T02:45:57.433Z,966.68
2016-07-30T02:46:57.434Z,966.69
2016-07-30T02:47:57.434Z,966.63
2016-07-30T02:48:57.433Z,966.63
2016-07-30T02:49:57.433Z,966.58
2016-07-30T02:50:57.438Z,966.59
2016-07-30T02:51:57.437Z,966.57
2016-07-30T02:52:57.437Z,966.6
2016-07-30T02:53:57.438Z,966.58
2016-07-30T02:54:57.447Z,966.58
2016-07-30T02:55:57.442Z,966.59
2016-07-30T02:56:57.441Z,966.56
2016-07-30T02:57:57.441Z,966.58
2016-07-30T02:58:57.445Z,966.59
2016-07-30T02:59:57.444Z,966.62
2016-07-30T03:00:57.445Z,966.58
2016-07-30T03:01:57.445Z,966.58
2016-07-30T03:02:57.449Z,966.57
2016-07-30T03:03:57.449Z,966.6
2016-07-30T03:04:57.449Z,966.56
2016-07-30T03:05:57.449Z,966.57
2016-07-30T03:06:57.453Z,966.59
2016-07-30T03:07:57.453Z,966.6
2016-07-30T03:08:57.454Z,966.6
2016-07-30T03:09:57.453Z,966.58
2016-07-30T03:10:57.453Z,966.61
2016-07-30T03:11:57.457Z,966.6
2016-07-30T03:12:57.457Z,966.58
2016-07-30T03:13:57.458Z,966.58
2016-07-30T03:14:57.457Z,966.61
2016-07-30T03:15:57.461Z,966.62
2016-07-30T03:16:57.462Z,966.61
2016-07-30T03:17:57.462Z,966.61
2016-07-30T03:18:57.461Z,966.59
2016-07-30T03:19:57.461Z,966.58
2016-07-30T03:20:57.465Z,966.61
2016-07-30T03:21:57.465Z,966.59
2016-07-30T03:22:57.465Z,966.58
2016-07-30T03:23:57.466Z,966.57
2016-07-30T03:24:57.466Z,966.58
2016-07-30T03:25:57.470Z,966.59
2016-07-30T03:26:57.469Z,966.6
2016-07-30T03:27:57.469Z,966.62
2016-07-30T03:28:57.470Z,966.62
2016-07-30T03:29:57.474Z,966.59
2016-07-30T03:30:57.474Z,966.6
2016-07-30T03:31:57.474Z,966.62
2016-07-30T03:32:57.477Z,966.59
2016-07-30T03:33:57.475Z,966.58
2016-07-30T03:34:57.474Z,966.61
2016-07-30T03:35:57.477Z,966.61
2016-07-30T03:36:57.478Z,966.63
2016-07-30T03:37:57.477Z,966.57
2016-07-30T03:38:57.478Z,966.57
2016-07-30T03:39:57.482Z,966.55
2016-07-30T03:40:57.482Z,966.55
2016-07-30T03:41:57.482Z,966.56
2016-07-30T03:42:57.481Z,966.59
2016-07-30T03:43:57.483Z,966.6
2016-07-30T03:44:57.486Z,966.59
2016-07-30T03:45:57.486Z,966.57
2016-07-30T03:46:57.486Z,966.55
2016-07-30T03:47:57.486Z,966.58
2016-07-30T03:48:57.495Z,966.59
2016-07-30T03:49:57.496Z,966.58
2016-07-30T03:50:57.490Z,966.6
2016-07-30T03:51:57.490Z,966.55
2016-07-30T03:52:57.490Z,966.6
2016-07-30T03:53:57.490Z,966.62
2016-07-30T03:54:57.494Z,966.55
2016-07-30T03:55:57.495Z,966.6
2016-07-30T03:56:57.495Z,966.6
2016-07-30T03:57:57.494Z,966.59
2016-07-30T03:58:57.495Z,966.62
2016-07-30T03:59:57.498Z,966.6
2016-07-30T04:00:57.498Z,966.59
2016-07-30T04:01:57.499Z,966.64
2016-07-30T04:02:57.498Z,966.65
2016-07-30T04:03:57.499Z,966.65
2016-07-30T04:04:57.503Z,966.65
2016-07-30T04:05:57.501Z,966.68
2016-07-30T04:06:57.502Z,966.63
2016-07-30T04:07:57.502Z,966.59
2016-07-30T04:08:57.503Z,966.65
2016-07-30T04:09:57.506Z,966.68
2016-07-30T04:10:57.506Z,966.59
2016-07-30T04:11:57.507Z,966.61
2016-07-30T04:12:57.509Z,966.6
2016-07-30T04:13:57.507Z,966.59
2016-07-30T04:14:57.511Z,966.56
2016-07-30T04:15:57.511Z,966.59
2016-07-30T04:16:57.511Z,966.64
2016-07-30T04:17:57.511Z,966.58
2016-07-30T04:18:57.515Z,966.57
2016-07-30T04:19:57.514Z,966.56
2016-07-30T04:20:57.515Z,966.52
2016-07-30T04:21:57.515Z,966.53
2016-07-30T04:22:57.515Z,966.51
2016-07-30T04:23:57.514Z,966.49
2016-07-30T04:24:57.518Z,966.55
2016-07-30T04:25:57.523Z,966.53
2016-07-30T04:26:57.518Z,966.51
2016-07-30T04:27:57.518Z,966.57
2016-07-30T04:28:57.518Z,966.53
2016-07-30T04:29:57.519Z,966.52
2016-07-30T04:30:57.523Z,966.54
2016-07-30T04:31:57.523Z,966.56
2016-07-30T04:32:57.523Z,966.61
2016-07-30T04:33:57.523Z,966.61
2016-07-30T04:34:57.527Z,966.56
2016-07-30T04:35:57.527Z,966.59
2016-07-30T04:36:57.527Z,966.6
2016-07-30T04:38:57.527Z,966.63
2016-07-30T04:39:57.536Z,966.63
2016-07-30T04:40:57.531Z,966.62
2016-07-30T04:41:57.531Z,966.62
2016-07-30T04:42:57.532Z,966.61
2016-07-30T04:43:57.531Z,966.6
2016-07-30T04:44:57.532Z,966.59
2016-07-30T04:45:57.536Z,966.6
2016-07-30T04:46:57.536Z,966.57
2016-07-30T04:47:57.536Z,966.6
2016-07-30T04:48:57.536Z,966.56
2016-07-30T04:49:57.536Z,966.56
2016-07-30T04:50:57.540Z,966.56
2016-07-30T04:51:57.539Z,966.57
2016-07-30T04:52:57.540Z,966.57
2016-07-30T04:53:57.540Z,966.58
2016-07-30T04:54:57.540Z,966.61
2016-07-30T04:55:57.545Z,966.6
2016-07-30T04:56:57.544Z,966.62
2016-07-30T04:57:57.544Z,966.65
2016-07-30T04:58:57.545Z,966.67
2016-07-30T04:59:57.544Z,966.67
2016-07-30T05:00:57.548Z,966.64
2016-07-30T05:01:57.549Z,966.67
2016-07-30T05:02:57.548Z,966.65
2016-07-30T05:03:57.548Z,966.64
2016-07-30T05:04:57.553Z,966.63
2016-07-30T05:05:57.552Z,966.65
2016-07-30T05:06:57.552Z,966.65
2016-07-30T05:07:57.552Z,966.66
2016-07-30T05:08:57.553Z,966.67
2016-07-30T05:09:57.552Z,966.66
2016-07-30T05:10:57.556Z,966.61
2016-07-30T05:11:57.556Z,966.67
2016-07-30T05:12:57.556Z,966.65
2016-07-30T05:13:57.556Z,966.69
2016-07-30T05:14:57.560Z,966.69
2016-07-30T05:15:57.561Z,966.69
2016-07-30T05:16:57.561Z,966.64
2016-07-30T05:17:57.561Z,966.69
2016-07-30T05:18:57.565Z,966.69
2016-07-30T05:19:57.565Z,966.66
2016-07-30T05:20:57.565Z,966.66
2016-07-30T05:21:57.566Z,966.67
2016-07-30T05:22:57.569Z,966.66
2016-07-30T05:23:57.569Z,966.68
2016-07-30T05:24:57.569Z,966.67
2016-07-30T05:25:57.573Z,966.66
2016-07-30T05:26:57.573Z,966.68
2016-07-30T05:27:57.578Z,966.65
2016-07-30T05:28:57.576Z,966.64
2016-07-30T05:29:57.577Z,966.64
2016-07-30T05:30:57.577Z,966.67
2016-07-30T05:31:57.578Z,966.67
2016-07-30T05:32:57.581Z,966.67
2016-07-30T05:33:57.580Z,966.63
2016-07-30T05:34:57.582Z,966.67
2016-07-30T05:35:57.586Z,966.65
2016-07-30T05:36:57.585Z,966.63
2016-07-30T05:37:57.585Z,966.66
2016-07-30T05:38:57.588Z,966.65
2016-07-30T05:39:57.589Z,966.66
2016-07-30T05:40:57.590Z,966.68
2016-07-30T05:41:57.594Z,966.7
2016-07-30T05:42:57.594Z,966.69
2016-07-30T05:43:57.593Z,966.68
2016-07-30T05:44:57.598Z,966.67
2016-07-30T05:45:57.597Z,966.67
2016-07-30T05:46:57.610Z,966.69
2016-07-30T05:47:57.603Z,966.72
2016-07-30T05:48:57.602Z,966.71
2016-07-30T05:49:57.607Z,966.71
2016-07-30T05:50:57.606Z,966.75
2016-07-30T05:51:57.607Z,966.73
2016-07-30T05:52:57.611Z,966.72
2016-07-30T05:53:57.610Z,966.73
2016-07-30T05:54:57.615Z,966.71
2016-07-30T05:55:57.615Z,966.74
2016-07-30T05:56:57.615Z,966.73
2016-07-30T05:57:57.619Z,966.75
2016-07-30T05:58:57.619Z,966.73
2016-07-30T05:59:57.623Z,966.7
2016-07-30T06:00:57.623Z,966.71
2016-07-30T06:01:57.623Z,966.65
2016-07-30T06:02:57.628Z,966.67
2016-07-30T06:03:57.627Z,966.65
2016-07-30T06:04:57.631Z,966.57
2016-07-30T06:05:57.632Z,966.56
2016-07-30T06:06:57.636Z,966.56
2016-07-30T06:07:57.635Z,966.56
2016-07-30T06:08:57.640Z,966.56
2016-07-30T06:09:57.639Z,966.55
2016-07-30T06:10:57.644Z,966.56
2016-07-30T06:11:57.644Z,966.51
2016-07-30T06:12:57.643Z,966.53
2016-07-30T06:13:57.648Z,966.55
2016-07-30T06:14:57.652Z,966.5
2016-07-30T06:15:57.652Z,966.51
2016-07-30T06:16:57.652Z,966.52
2016-07-30T06:17:57.656Z,966.52
2016-07-30T06:18:57.656Z,966.53
2016-07-30T06:19:57.660Z,966.5
2016-07-30T06:20:57.659Z,966.49
2016-07-30T06:21:57.663Z,966.49
2016-07-30T06:22:57.664Z,966.49
2016-07-30T06:23:57.667Z,966.48
2016-07-30T06:24:57.668Z,966.45
2016-07-30T06:25:57.672Z,966.5
2016-07-30T06:26:57.672Z,966.48
2016-07-30T06:27:57.675Z,966.5
2016-07-30T06:28:57.676Z,966.48
2016-07-30T06:29:57.680Z,966.47
2016-07-30T06:30:57.680Z,966.5
2016-07-30T06:31:57.684Z,966.5
2016-07-30T06:32:57.684Z,966.5
2016-07-30T06:33:57.687Z,966.46
2016-07-30T06:34:57.688Z,966.45
2016-07-30T06:35:57.693Z,966.47
2016-07-30T06:36:57.691Z,966.47
2016-07-30T06:37:57.697Z,966.43
2016-07-30T06:38:57.697Z,966.47
2016-07-30T06:39:57.700Z,966.45
2016-07-30T06:40:57.700Z,966.46
2016-07-30T06:41:57.703Z,966.46
2016-07-30T06:42:57.705Z,966.48
2016-07-30T06:43:57.708Z,966.45
2016-07-30T06:44:57.708Z,966.45
2016-07-30T06:45:57.712Z,966.42
2016-07-30T06:46:57.713Z,966.43
2016-07-30T06:47:57.716Z,966.43
2016-07-30T06:48:57.717Z,966.42
2016-07-30T06:49:57.720Z,966.4
2016-07-30T06:50:57.725Z,966.43
2016-07-30T06:51:57.725Z,966.38
2016-07-30T06:52:57.729Z,966.38
2016-07-30T06:53:57.728Z,966.39
2016-07-30T06:54:57.733Z,966.4
2016-07-30T06:55:57.734Z,966.37
2016-07-30T06:56:57.737Z,966.38
2016-07-30T06:57:57.737Z,966.38
2016-07-30T06:58:57.741Z,966.38
2016-07-30T06:59:57.742Z,966.35
2016-07-30T07:00:57.745Z,966.36
2016-07-30T07:01:57.749Z,966.32
2016-07-30T07:02:57.749Z,966.35
2016-07-30T07:03:57.754Z,966.31
2016-07-30T07:04:57.754Z,966.29
2016-07-30T07:05:57.757Z,966.32
2016-07-30T07:06:57.758Z,966.3
2016-07-30T07:07:57.762Z,966.3
2016-07-30T07:08:57.766Z,966.31
2016-07-30T07:09:57.766Z,966.34
2016-07-30T07:10:57.770Z,966.3
2016-07-30T07:11:57.770Z,966.32
2016-07-30T07:12:57.774Z,966.34
2016-07-30T07:13:57.773Z,966.3
2016-07-30T07:14:57.778Z,966.28
2016-07-30T07:15:57.783Z,966.26
2016-07-30T07:16:57.782Z,966.31
2016-07-30T07:17:57.787Z,966.25
2016-07-30T07:18:57.786Z,966.28
2016-07-30T07:19:57.789Z,966.26
2016-07-30T07:20:57.798Z,966.26
2016-07-30T07:21:57.794Z,966.29
2016-07-30T07:22:57.798Z,966.29
2016-07-30T07:23:57.799Z,966.29
2016-07-30T07:24:57.802Z,966.23
2016-07-30T07:25:57.803Z,966.25
2016-07-30T07:26:57.807Z,966.26
2016-07-30T07:27:57.812Z,966.22
2016-07-30T07:28:57.811Z,966.19
2016-07-30T07:29:57.815Z,966.24
2016-07-30T07:30:57.815Z,966.22
2016-07-30T07:31:57.820Z,966.17
2016-07-30T07:32:57.819Z,966.17
2016-07-30T07:33:57.824Z,966.2
2016-07-30T07:34:57.826Z,966.18
2016-07-30T07:35:57.828Z,966.18
2016-07-30T07:36:57.833Z,966.16
2016-07-30T07:37:57.835Z,966.16
2016-07-30T07:38:57.836Z,966.15
2016-07-30T07:39:57.839Z,966.15
2016-07-30T07:40:57.840Z,966.16
2016-07-30T07:41:57.844Z,966.16
2016-07-30T07:42:57.847Z,966.18
2016-07-30T07:43:57.848Z,966.17
2016-07-30T07:44:57.851Z,966.14
2016-07-30T07:45:57.855Z,966.15
2016-07-30T07:46:57.857Z,966.15
2016-07-30T07:47:57.859Z,966.21
2016-07-30T07:48:57.860Z,966.19
2016-07-30T07:49:57.865Z,966.14
2016-07-30T07:50:57.867Z,966.15
2016-07-30T07:51:57.869Z,966.17
2016-07-30T07:52:57.872Z,966.16
2016-07-30T07:53:57.873Z,966.17
2016-07-30T07:54:57.877Z,966.17
2016-07-30T07:55:57.880Z,966.14
2016-07-30T07:56:57.885Z,966.15
2016-07-30T07:57:57.885Z,966.14
2016-07-30T07:58:57.888Z,966.15
2016-07-30T07:59:57.889Z,966.15
2016-07-30T08:00:57.893Z,966.09
2016-07-30T08:01:57.892Z,966.08
2016-07-30T08:02:57.909Z,966.08
2016-07-30T08:03:57.900Z,966.11
2016-07-30T08:04:57.900Z,966.08
2016-07-30T08:05:57.905Z,966.1
2016-07-30T08:06:57.907Z,966.1
2016-07-30T08:07:57.912Z,966.1
2016-07-30T08:08:57.911Z,966.12
2016-07-30T08:09:57.917Z,966.1
2016-07-30T08:10:57.917Z,966.08
2016-07-30T08:11:57.920Z,966.05
2016-07-30T08:12:57.925Z,966.06
2016-07-30T08:13:57.924Z,966.05
2016-07-30T08:14:57.929Z,966.04
2016-07-30T08:15:57.933Z,966.03
2016-07-30T08:16:57.932Z,966.02
2016-07-30T08:17:57.936Z,966.06
2016-07-30T08:18:57.941Z,966.04
2016-07-30T08:19:57.940Z,966.06
2016-07-30T08:20:57.944Z,966.03
2016-07-30T08:21:57.948Z,966.1
2016-07-30T08:22:57.949Z,966.08
2016-07-30T08:24:57.953Z,966.09
2016-07-30T08:25:57.956Z,966.05
2016-07-30T08:26:57.961Z,966.05
2016-07-30T08:27:57.961Z,966.02
2016-07-30T08:28:57.964Z,965.99
2016-07-30T08:29:57.969Z,965.97
2016-07-30T08:30:57.970Z,965.96
2016-07-30T08:31:57.973Z,965.95
2016-07-30T08:32:57.976Z,965.94
2016-07-30T08:33:57.980Z,965.94
2016-07-30T08:34:57.981Z,965.96
2016-07-30T08:35:57.984Z,965.91
2016-07-30T08:36:57.989Z,965.94
2016-07-30T08:37:57.989Z,965.93
2016-07-30T08:39:57.997Z,965.91
2016-07-30T08:40:57.996Z,965.93
2016-07-30T08:41:58.001Z,965.93
2016-07-30T08:42:58.005Z,965.88
2016-07-30T08:43:58.005Z,965.87
2016-07-30T08:44:58.009Z,965.91
2016-07-30T08:45:58.013Z,965.87
2016-07-30T08:46:58.013Z,965.86
2016-07-30T08:47:58.017Z,965.87
2016-07-30T08:48:58.021Z,965.84
2016-07-30T08:49:58.021Z,965.86
2016-07-30T08:50:58.025Z,965.79
2016-07-30T08:51:58.029Z,965.8
2016-07-30T08:52:58.030Z,965.8
2016-07-30T08:54:58.038Z,965.79
2016-07-30T08:55:58.042Z,965.77
2016-07-30T08:56:58.040Z,965.78
2016-07-30T08:57:58.058Z,965.81
2016-07-30T08:58:58.049Z,965.8
2016-07-30T08:59:58.049Z,965.77
2016-07-30T09:00:58.054Z,965.81
2016-07-30T09:01:58.061Z,965.78
2016-07-30T09:02:58.061Z,965.76
2016-07-30T09:03:58.062Z,965.78
2016-07-30T09:04:58.065Z,965.75
2016-07-30T09:05:58.070Z,965.77
2016-07-30T09:06:58.074Z,965.79
2016-07-30T09:07:58.073Z,965.78
2016-07-30T09:08:58.078Z,965.8
2016-07-30T09:09:58.081Z,965.82
2016-07-30T09:10:58.081Z,965.78
2016-07-30T09:11:58.086Z,965.78
2016-07-30T09:12:58.089Z,965.79
2016-07-30T09:13:58.094Z,965.78
2016-07-30T09:14:58.094Z,965.75
2016-07-30T09:15:58.098Z,965.75
2016-07-30T09:16:58.102Z,965.78
2016-07-30T09:17:58.102Z,965.76
2016-07-30T09:18:58.106Z,965.79
2016-07-30T09:19:58.109Z,965.78
2016-07-30T09:20:58.114Z,965.79
2016-07-30T09:21:58.113Z,965.8
2016-07-30T09:22:58.118Z,965.8
2016-07-30T09:23:58.122Z,965.8
2016-07-30T09:24:58.126Z,965.81
2016-07-30T09:25:58.127Z,965.83
2016-07-30T09:26:58.130Z,965.82
2016-07-30T09:27:58.134Z,965.81
2016-07-30T09:28:58.139Z,965.8
2016-07-30T09:29:58.139Z,965.83
2016-07-30T09:30:58.142Z,965.83
2016-07-30T09:31:58.147Z,965.84
2016-07-30T09:32:58.147Z,965.83
2016-07-30T09:33:58.151Z,965.86
2016-07-30T09:34:58.155Z,965.85
2016-07-30T09:35:58.158Z,965.8
2016-07-30T09:36:58.163Z,965.81
2016-07-30T09:37:58.163Z,965.8
2016-07-30T09:38:58.166Z,965.81
2016-07-30T09:39:58.171Z,965.78
2016-07-30T09:40:58.171Z,965.77
2016-07-30T09:41:58.175Z,965.73
2016-07-30T09:42:58.179Z,965.76
2016-07-30T09:43:58.183Z,965.77
2016-07-30T09:44:58.183Z,965.76
2016-07-30T09:45:58.187Z,965.75
2016-07-30T09:46:58.190Z,965.76
2016-07-30T09:47:58.195Z,965.75
2016-07-30T09:48:58.195Z,965.79
2016-07-30T09:49:58.198Z,965.74
2016-07-30T09:50:58.210Z,965.73
2016-07-30T09:51:58.207Z,965.76
2016-07-30T09:52:58.208Z,965.74
2016-07-30T09:53:58.211Z,965.74
2016-07-30T09:54:58.215Z,965.73
2016-07-30T09:55:58.219Z,965.72
2016-07-30T09:56:58.223Z,965.73
2016-07-30T09:57:58.222Z,965.78
2016-07-30T09:58:58.227Z,965.74
2016-07-30T09:59:58.230Z,965.72
2016-07-30T10:00:58.235Z,965.76
2016-07-30T10:01:58.235Z,965.75
2016-07-30T10:02:58.240Z,965.74
2016-07-30T10:03:58.242Z,965.78
2016-07-30T10:04:58.247Z,965.78
2016-07-30T10:05:58.247Z,965.79
2016-07-30T10:06:58.251Z,965.76
2016-07-30T10:07:58.255Z,965.77
2016-07-30T10:08:58.259Z,965.77
2016-07-30T10:09:58.259Z,965.71
2016-07-30T10:10:58.262Z,965.73
2016-07-30T10:11:58.267Z,965.71
2016-07-30T10:12:58.271Z,965.74
2016-07-30T10:13:58.271Z,965.71
2016-07-30T10:14:58.275Z,965.73
2016-07-30T10:15:58.280Z,965.72
2016-07-30T10:16:58.285Z,965.73
2016-07-30T10:17:58.283Z,965.73
2016-07-30T10:18:58.287Z,965.71
2016-07-30T10:19:58.291Z,965.75
2016-07-30T10:20:58.295Z,965.72
2016-07-30T10:21:58.295Z,965.69
2016-07-30T10:22:58.299Z,965.67
2016-07-30T10:23:58.304Z,965.7
2016-07-30T10:24:58.307Z,965.68
2016-07-30T10:25:58.307Z,965.71
2016-07-30T10:26:58.312Z,965.69
2016-07-30T10:27:58.316Z,965.73
2016-07-30T10:28:58.320Z,965.67
2016-07-30T10:29:58.324Z,965.69
2016-07-30T10:30:58.323Z,965.7
2016-07-30T10:31:58.329Z,965.71
2016-07-30T10:32:58.332Z,965.72
2016-07-30T10:33:58.335Z,965.71
2016-07-30T10:34:58.336Z,965.69
2016-07-30T10:35:58.340Z,965.69
2016-07-30T10:36:58.344Z,965.66
2016-07-30T10:37:58.359Z,965.68
2016-07-30T10:38:58.348Z,965.66
2016-07-30T10:39:58.352Z,965.67
2016-07-30T10:40:58.357Z,965.65
2016-07-30T10:41:58.361Z,965.65
2016-07-30T10:42:58.361Z,965.65
2016-07-30T10:43:58.364Z,965.65
2016-07-30T10:44:58.368Z,965.64
2016-07-30T10:45:58.373Z,965.57
2016-07-30T10:46:58.372Z,965.6
2016-07-30T10:47:58.376Z,965.6
2016-07-30T10:48:58.380Z,965.58
2016-07-30T10:49:58.384Z,965.56
2016-07-30T10:50:58.384Z,965.55
2016-07-30T10:51:58.388Z,965.59
2016-07-30T10:52:58.393Z,965.56
2016-07-30T10:53:58.396Z,965.55
2016-07-30T10:54:58.401Z,965.55
2016-07-30T10:55:58.405Z,965.54
2016-07-30T10:56:58.405Z,965.52
2016-07-30T10:57:58.413Z,965.56
2016-07-30T10:58:58.413Z,965.51
2016-07-30T10:59:58.417Z,965.52
2016-07-30T11:00:58.417Z,965.53
2016-07-30T11:01:58.421Z,965.54
2016-07-30T11:02:58.424Z,965.48
2016-07-30T11:03:58.429Z,965.5
2016-07-30T11:04:58.428Z,965.48
2016-07-30T11:05:58.432Z,965.49
2016-07-30T11:06:58.438Z,965.5
2016-07-30T11:07:58.437Z,965.46
2016-07-30T11:08:58.441Z,965.52
2016-07-30T11:09:58.446Z,965.49
2016-07-30T11:10:58.448Z,965.5
2016-07-30T11:11:58.453Z,965.47
2016-07-30T11:12:58.463Z,965.48
2016-07-30T11:13:58.457Z,965.51
2016-07-30T11:14:58.461Z,965.46
2016-07-30T11:15:58.465Z,965.43
2016-07-30T11:16:58.464Z,965.45
2016-07-30T11:17:58.470Z,965.45
2016-07-30T11:18:58.473Z,965.46
2016-07-30T11:19:58.478Z,965.46
2016-07-30T11:20:58.485Z,965.46
2016-07-30T11:21:58.481Z,965.47
2016-07-30T11:22:58.485Z,965.44
2016-07-30T11:23:58.489Z,965.46
2016-07-30T11:24:58.493Z,965.45
2016-07-30T11:25:58.494Z,965.45
2016-07-30T11:26:58.497Z,965.43
2016-07-30T11:27:58.501Z,965.39
2016-07-30T11:28:58.506Z,965.4
2016-07-30T11:29:58.506Z,965.42
2016-07-30T11:30:58.509Z,965.4
2016-07-30T11:31:58.513Z,965.41
2016-07-30T11:32:58.517Z,965.38
2016-07-30T11:33:58.517Z,965.37
2016-07-30T11:34:58.522Z,965.39
2016-07-30T11:35:58.525Z,965.43
2016-07-30T11:36:58.525Z,965.38
2016-07-30T11:37:58.530Z,965.38
2016-07-30T11:38:58.534Z,965.4
2016-07-30T11:39:58.538Z,965.34
2016-07-30T11:40:58.542Z,965.32
2016-07-30T11:41:58.542Z,965.33
2016-07-30T11:42:58.546Z,965.29
2016-07-30T11:43:58.550Z,965.32
2016-07-30T11:44:58.552Z,965.33
2016-07-30T11:45:58.554Z,965.33
2016-07-30T11:46:58.558Z,965.33
2016-07-30T11:47:58.562Z,965.3
2016-07-30T11:48:58.566Z,965.29
2016-07-30T11:49:58.566Z,965.29
2016-07-30T11:50:58.570Z,965.32
2016-07-30T11:51:58.573Z,965.3
2016-07-30T11:52:58.577Z,965.31
2016-07-30T11:53:58.578Z,965.27
2016-07-30T11:54:58.582Z,965.26
2016-07-30T11:55:58.586Z,965.24
2016-07-30T11:56:58.590Z,965.24
2016-07-30T11:57:58.594Z,965.23
2016-07-30T11:58:58.594Z,965.22
2016-07-30T11:59:58.598Z,965.22
2016-07-30T12:00:58.602Z,965.2
2016-07-30T12:01:58.606Z,965.22
2016-07-30T12:02:58.607Z,965.21
2016-07-30T12:03:58.610Z,965.22
2016-07-30T12:04:58.614Z,965.26
2016-07-30T12:05:58.618Z,965.25
2016-07-30T12:06:58.619Z,965.3
2016-07-30T12:07:58.622Z,965.29
2016-07-30T12:08:58.626Z,965.3
2016-07-30T12:09:58.626Z,965.28
2016-07-30T12:10:58.631Z,965.26
2016-07-30T12:11:58.634Z,965.29
2016-07-30T12:12:58.638Z,965.27
2016-07-30T12:13:58.639Z,965.27
2016-07-30T12:14:58.642Z,965.28
2016-07-30T12:15:58.647Z,965.25
2016-07-30T12:16:58.650Z,965.24
2016-07-30T12:17:58.651Z,965.21
2016-07-30T12:18:58.655Z,965.26
2016-07-30T12:19:58.658Z,965.25
2016-07-30T12:20:58.663Z,965.23
2016-07-30T12:21:58.663Z,965.24
2016-07-30T12:22:58.667Z,965.25
2016-07-30T12:23:58.682Z,965.15
2016-07-30T12:24:58.675Z,965.13
2016-07-30T12:25:58.679Z,965.13
2016-07-30T12:26:58.679Z,965.18
2016-07-30T12:27:58.683Z,965.1
2016-07-30T12:28:58.687Z,965.13
2016-07-30T12:29:58.690Z,965.09
2016-07-30T12:30:58.695Z,965.15
2016-07-30T12:31:58.695Z,965.14
2016-07-30T12:32:58.698Z,965.19
2016-07-30T12:33:58.704Z,965.16
2016-07-30T12:34:58.707Z,965.17
2016-07-30T12:35:58.707Z,965.17
2016-07-30T12:36:58.711Z,965.19
2016-07-30T12:37:58.715Z,965.22